sensor_id;sensor_type;location;lat;lon;timestamp;P1;durP1;ratioP1;P2;durP2;ratioP2
12328;SDS011;6230;52.390;10.256;2022-08-30T00:01:55;2.03;;;1.40;;
12328;SDS011;6230;52.390;10.256;2022-08-30T00:04:21;1.10;;;1.00;;
12328;SDS011;6230;52.390;10.256;2022-08-30T00:06:47;1.60;;;1.13;;
12328;SDS011;6230;52.390;10.256;2022-08-30T00:09:13;2.20;;;1.25;;
12328;SDS011;6230;52.390;10.256;2022-08-30T00:11:38;1.88;;;1.40;;
12328;SDS011;6230;52.390;10.256;2022-08-30T00:14:04;1.00;;;1.00;;
12328;SDS011;6230;52.390;10.256;2022-08-30T00:16:30;1.45;;;1.13;;
12328;SDS011;6230;52.390;10.256;2022-08-30T00:18:56;1.52;;;1.23;;
12328;SDS011;6230;52.390;10.256;2022-08-30T00:21:22;3.13;;;1.40;;
12328;SDS011;6230;52.390;10.256;2022-08-30T00:23:47;2.33;;;1.10;;
12328;SDS011;6230;52.390;10.256;2022-08-30T00:26:13;1.42;;;1.27;;
12328;SDS011;6230;52.390;10.256;2022-08-30T00:28:39;1.42;;;1.30;;
12328;SDS011;6230;52.390;10.256;2022-08-30T00:31:04;1.90;;;1.60;;
12328;SDS011;6230;52.390;10.256;2022-08-30T00:33:31;1.45;;;1.20;;
12328;SDS011;6230;52.390;10.256;2022-08-30T00:35:56;1.10;;;1.00;;
12328;SDS011;6230;52.390;10.256;2022-08-30T00:38:22;2.15;;;1.27;;
12328;SDS011;6230;52.390;10.256;2022-08-30T00:40:48;3.05;;;1.80;;
12328;SDS011;6230;52.390;10.256;2022-08-30T00:43:17;2.33;;;1.42;;
12328;SDS011;6230;52.390;10.256;2022-08-30T00:45:49;5.15;;;3.35;;
12328;SDS011;6230;52.390;10.256;2022-08-30T00:48:15;2.30;;;1.90;;
12328;SDS011;6230;52.390;10.256;2022-08-30T00:50:42;3.83;;;3.03;;
12328;SDS011;6230;52.390;10.256;2022-08-30T00:53:12;3.60;;;2.63;;
12328;SDS011;6230;52.390;10.256;2022-08-30T00:55:41;2.08;;;1.60;;
12328;SDS011;6230;52.390;10.256;2022-08-30T00:58:08;2.42;;;2.22;;
12328;SDS011;6230;52.390;10.256;2022-08-30T01:00:37;2.70;;;2.30;;
12328;SDS011;6230;52.390;10.256;2022-08-30T01:03:03;1.92;;;1.45;;
12328;SDS011;6230;52.390;10.256;2022-08-30T01:05:33;2.70;;;2.50;;
12328;SDS011;6230;52.390;10.256;2022-08-30T01:08:03;4.60;;;2.20;;
12328;SDS011;6230;52.390;10.256;2022-08-30T01:10:29;2.25;;;1.90;;
12328;SDS011;6230;52.390;10.256;2022-08-30T01:12:57;2.60;;;2.17;;
12328;SDS011;6230;52.390;10.256;2022-08-30T01:15:22;3.35;;;2.97;;
12328;SDS011;6230;52.390;10.256;2022-08-30T01:17:48;4.15;;;2.78;;
12328;SDS011;6230;52.390;10.256;2022-08-30T01:20:16;5.10;;;3.20;;
12328;SDS011;6230;52.390;10.256;2022-08-30T01:25:15;2.65;;;2.42;;
12328;SDS011;6230;52.390;10.256;2022-08-30T01:28:04;3.13;;;2.83;;
12328;SDS011;6230;52.390;10.256;2022-08-30T01:30:32;2.60;;;1.90;;
12328;SDS011;6230;52.390;10.256;2022-08-30T01:33:00;3.28;;;2.42;;
12328;SDS011;6230;52.390;10.256;2022-08-30T01:35:28;3.08;;;2.78;;
12328;SDS011;6230;52.390;10.256;2022-08-30T01:38:19;3.25;;;2.63;;
12328;SDS011;6230;52.390;10.256;2022-08-30T01:40:48;3.58;;;2.90;;
12328;SDS011;6230;52.390;10.256;2022-08-30T01:43:13;5.18;;;4.10;;
12328;SDS011;6230;52.390;10.256;2022-08-30T01:45:40;5.40;;;4.90;;
12328;SDS011;6230;52.390;10.256;2022-08-30T01:48:06;6.43;;;5.53;;
12328;SDS011;6230;52.390;10.256;2022-08-30T01:50:32;7.90;;;6.50;;
12328;SDS011;6230;52.390;10.256;2022-08-30T01:52:58;7.53;;;6.82;;
12328;SDS011;6230;52.390;10.256;2022-08-30T01:55:23;9.10;;;8.00;;
12328;SDS011;6230;52.390;10.256;2022-08-30T01:57:49;10.88;;;7.97;;
12328;SDS011;6230;52.390;10.256;2022-08-30T02:00:15;10.15;;;7.20;;
12328;SDS011;6230;52.390;10.256;2022-08-30T02:02:42;16.67;;;8.55;;
12328;SDS011;6230;52.390;10.256;2022-08-30T02:05:08;11.30;;;8.10;;
12328;SDS011;6230;52.390;10.256;2022-08-30T02:07:34;10.63;;;8.68;;
12328;SDS011;6230;52.390;10.256;2022-08-30T02:10:00;8.68;;;7.78;;
12328;SDS011;6230;52.390;10.256;2022-08-30T02:12:26;9.63;;;8.73;;
12328;SDS011;6230;52.390;10.256;2022-08-30T02:14:54;8.02;;;7.32;;
12328;SDS011;6230;52.390;10.256;2022-08-30T02:17:19;11.27;;;7.25;;
12328;SDS011;6230;52.390;10.256;2022-08-30T02:19:45;16.38;;;8.20;;
12328;SDS011;6230;52.390;10.256;2022-08-30T02:22:11;17.23;;;7.57;;
12328;SDS011;6230;52.390;10.256;2022-08-30T02:24:36;8.48;;;6.93;;
12328;SDS011;6230;52.390;10.256;2022-08-30T02:27:02;8.15;;;6.80;;
12328;SDS011;6230;52.390;10.256;2022-08-30T02:29:29;11.85;;;7.10;;
12328;SDS011;6230;52.390;10.256;2022-08-30T02:31:55;13.00;;;7.47;;
12328;SDS011;6230;52.390;10.256;2022-08-30T02:34:21;10.93;;;6.75;;
12328;SDS011;6230;52.390;10.256;2022-08-30T02:36:46;6.95;;;5.97;;
12328;SDS011;6230;52.390;10.256;2022-08-30T02:39:13;13.43;;;6.00;;
12328;SDS011;6230;52.390;10.256;2022-08-30T02:41:40;6.47;;;5.97;;
12328;SDS011;6230;52.390;10.256;2022-08-30T02:44:06;6.65;;;5.95;;
12328;SDS011;6230;52.390;10.256;2022-08-30T02:46:32;8.48;;;6.78;;
12328;SDS011;6230;52.390;10.256;2022-08-30T02:48:58;28.02;;;7.15;;
12328;SDS011;6230;52.390;10.256;2022-08-30T02:51:24;7.90;;;6.50;;
12328;SDS011;6230;52.390;10.256;2022-08-30T02:53:50;9.32;;;6.30;;
12328;SDS011;6230;52.390;10.256;2022-08-30T02:56:16;6.25;;;5.38;;
12328;SDS011;6230;52.390;10.256;2022-08-30T02:58:42;11.57;;;5.43;;
12328;SDS011;6230;52.390;10.256;2022-08-30T03:01:09;15.50;;;5.82;;
12328;SDS011;6230;52.390;10.256;2022-08-30T03:03:37;9.48;;;5.70;;
12328;SDS011;6230;52.390;10.256;2022-08-30T03:06:04;6.32;;;5.47;;
12328;SDS011;6230;52.390;10.256;2022-08-30T03:08:30;7.00;;;5.75;;
12328;SDS011;6230;52.390;10.256;2022-08-30T03:10:56;5.90;;;5.38;;
12328;SDS011;6230;52.390;10.256;2022-08-30T03:13:22;6.35;;;5.38;;
12328;SDS011;6230;52.390;10.256;2022-08-30T03:15:48;7.15;;;6.43;;
12328;SDS011;6230;52.390;10.256;2022-08-30T03:18:15;6.30;;;5.80;;
12328;SDS011;6230;52.390;10.256;2022-08-30T03:20:42;13.07;;;6.47;;
12328;SDS011;6230;52.390;10.256;2022-08-30T03:23:07;7.22;;;6.63;;
12328;SDS011;6230;52.390;10.256;2022-08-30T03:25:33;25.15;;;7.25;;
12328;SDS011;6230;52.390;10.256;2022-08-30T03:27:59;10.10;;;7.72;;
12328;SDS011;6230;52.390;10.256;2022-08-30T03:30:25;8.43;;;7.63;;
12328;SDS011;6230;52.390;10.256;2022-08-30T03:32:50;20.30;;;7.57;;
12328;SDS011;6230;52.390;10.256;2022-08-30T03:35:16;25.27;;;7.32;;
12328;SDS011;6230;52.390;10.256;2022-08-30T03:37:42;10.75;;;7.45;;
12328;SDS011;6230;52.390;10.256;2022-08-30T03:40:09;8.75;;;7.30;;
12328;SDS011;6230;52.390;10.256;2022-08-30T03:42:35;9.23;;;7.40;;
12328;SDS011;6230;52.390;10.256;2022-08-30T03:45:01;14.27;;;6.95;;
12328;SDS011;6230;52.390;10.256;2022-08-30T03:47:28;10.52;;;6.85;;
12328;SDS011;6230;52.390;10.256;2022-08-30T03:49:54;7.78;;;6.97;;
12328;SDS011;6230;52.390;10.256;2022-08-30T03:52:20;17.05;;;6.38;;
12328;SDS011;6230;52.390;10.256;2022-08-30T03:54:45;7.47;;;6.80;;
12328;SDS011;6230;52.390;10.256;2022-08-30T03:57:11;10.32;;;6.85;;
12328;SDS011;6230;52.390;10.256;2022-08-30T03:59:37;9.63;;;6.68;;
12328;SDS011;6230;52.390;10.256;2022-08-30T04:02:03;7.50;;;6.80;;
12328;SDS011;6230;52.390;10.256;2022-08-30T04:04:29;7.85;;;7.25;;
12328;SDS011;6230;52.390;10.256;2022-08-30T04:06:54;7.30;;;6.70;;
12328;SDS011;6230;52.390;10.256;2022-08-30T04:09:20;8.02;;;7.22;;
12328;SDS011;6230;52.390;10.256;2022-08-30T04:11:46;9.43;;;6.53;;
12328;SDS011;6230;52.390;10.256;2022-08-30T04:14:12;16.65;;;8.05;;
12328;SDS011;6230;52.390;10.256;2022-08-30T04:16:37;8.77;;;7.80;;
12328;SDS011;6230;52.390;10.256;2022-08-30T04:19:03;9.38;;;7.90;;
12328;SDS011;6230;52.390;10.256;2022-08-30T04:21:29;13.23;;;8.27;;
12328;SDS011;6230;52.390;10.256;2022-08-30T04:23:54;10.77;;;8.25;;
12328;SDS011;6230;52.390;10.256;2022-08-30T04:26:20;15.75;;;8.93;;
12328;SDS011;6230;52.390;10.256;2022-08-30T04:28:46;10.10;;;9.00;;
12328;SDS011;6230;52.390;10.256;2022-08-30T04:31:12;20.02;;;9.13;;
12328;SDS011;6230;52.390;10.256;2022-08-30T04:33:40;10.55;;;8.63;;
12328;SDS011;6230;52.390;10.256;2022-08-30T04:36:06;10.73;;;8.15;;
12328;SDS011;6230;52.390;10.256;2022-08-30T04:38:34;10.90;;;8.77;;
12328;SDS011;6230;52.390;10.256;2022-08-30T04:41:00;9.85;;;8.85;;
12328;SDS011;6230;52.390;10.256;2022-08-30T04:43:26;8.85;;;8.05;;
12328;SDS011;6230;52.390;10.256;2022-08-30T04:45:52;9.93;;;9.00;;
12328;SDS011;6230;52.390;10.256;2022-08-30T04:48:19;10.70;;;8.88;;
12328;SDS011;6230;52.390;10.256;2022-08-30T04:50:46;9.10;;;8.30;;
12328;SDS011;6230;52.390;10.256;2022-08-30T04:53:12;9.80;;;8.48;;
12328;SDS011;6230;52.390;10.256;2022-08-30T04:55:39;12.55;;;8.98;;
12328;SDS011;6230;52.390;10.256;2022-08-30T04:58:05;10.80;;;9.35;;
12328;SDS011;6230;52.390;10.256;2022-08-30T05:00:31;9.38;;;8.57;;
12328;SDS011;6230;52.390;10.256;2022-08-30T05:02:57;16.38;;;9.90;;
12328;SDS011;6230;52.390;10.256;2022-08-30T05:05:24;22.90;;;11.15;;
12328;SDS011;6230;52.390;10.256;2022-08-30T05:08:05;14.23;;;10.45;;
12328;SDS011;6230;52.390;10.256;2022-08-30T05:10:39;11.20;;;9.98;;
12328;SDS011;6230;52.390;10.256;2022-08-30T05:13:10;10.50;;;9.25;;
12328;SDS011;6230;52.390;10.256;2022-08-30T05:15:36;47.58;;;12.50;;
12328;SDS011;6230;52.390;10.256;2022-08-30T05:18:03;39.03;;;11.07;;
12328;SDS011;6230;52.390;10.256;2022-08-30T05:20:29;22.30;;;10.30;;
12328;SDS011;6230;52.390;10.256;2022-08-30T05:22:55;10.15;;;9.07;;
12328;SDS011;6230;52.390;10.256;2022-08-30T05:25:22;20.52;;;10.82;;
12328;SDS011;6230;52.390;10.256;2022-08-30T05:27:51;23.20;;;10.75;;
12328;SDS011;6230;52.390;10.256;2022-08-30T05:30:17;10.75;;;9.75;;
12328;SDS011;6230;52.390;10.256;2022-08-30T05:32:43;9.75;;;8.80;;
12328;SDS011;6230;52.390;10.256;2022-08-30T05:35:10;11.48;;;9.98;;
12328;SDS011;6230;52.390;10.256;2022-08-30T05:37:36;19.10;;;9.85;;
12328;SDS011;6230;52.390;10.256;2022-08-30T05:40:03;11.57;;;8.35;;
12328;SDS011;6230;52.390;10.256;2022-08-30T05:42:30;13.15;;;9.77;;
12328;SDS011;6230;52.390;10.256;2022-08-30T05:44:56;12.85;;;10.55;;
12328;SDS011;6230;52.390;10.256;2022-08-30T05:47:22;65.95;;;13.02;;
12328;SDS011;6230;52.390;10.256;2022-08-30T05:49:47;11.60;;;9.98;;
12328;SDS011;6230;52.390;10.256;2022-08-30T05:52:13;14.50;;;9.85;;
12328;SDS011;6230;52.390;10.256;2022-08-30T05:54:42;10.85;;;8.63;;
12328;SDS011;6230;52.390;10.256;2022-08-30T05:57:09;10.32;;;8.80;;
12328;SDS011;6230;52.390;10.256;2022-08-30T05:59:35;23.42;;;11.07;;
12328;SDS011;6230;52.390;10.256;2022-08-30T06:02:01;25.02;;;11.38;;
12328;SDS011;6230;52.390;10.256;2022-08-30T06:04:26;14.98;;;10.18;;
12328;SDS011;6230;52.390;10.256;2022-08-30T06:06:52;11.90;;;9.77;;
12328;SDS011;6230;52.390;10.256;2022-08-30T06:09:18;15.13;;;10.52;;
12328;SDS011;6230;52.390;10.256;2022-08-30T06:11:44;11.30;;;10.13;;
12328;SDS011;6230;52.390;10.256;2022-08-30T06:14:10;11.95;;;10.75;;
12328;SDS011;6230;52.390;10.256;2022-08-30T06:16:37;10.55;;;9.45;;
12328;SDS011;6230;52.390;10.256;2022-08-30T06:19:04;10.73;;;9.63;;
12328;SDS011;6230;52.390;10.256;2022-08-30T06:21:33;11.18;;;10.07;;
12328;SDS011;6230;52.390;10.256;2022-08-30T06:24:00;9.85;;;8.90;;
12328;SDS011;6230;52.390;10.256;2022-08-30T06:26:26;11.23;;;10.02;;
12328;SDS011;6230;52.390;10.256;2022-08-30T06:28:53;10.63;;;8.90;;
12328;SDS011;6230;52.390;10.256;2022-08-30T06:31:21;9.10;;;8.20;;
12328;SDS011;6230;52.390;10.256;2022-08-30T06:33:48;24.67;;;9.95;;
12328;SDS011;6230;52.390;10.256;2022-08-30T06:36:15;12.18;;;7.93;;
12328;SDS011;6230;52.390;10.256;2022-08-30T06:38:43;9.90;;;7.95;;
12328;SDS011;6230;52.390;10.256;2022-08-30T06:41:11;8.27;;;7.15;;
12328;SDS011;6230;52.390;10.256;2022-08-30T06:43:38;7.30;;;6.60;;
12328;SDS011;6230;52.390;10.256;2022-08-30T06:46:05;7.72;;;6.93;;
12328;SDS011;6230;52.390;10.256;2022-08-30T06:48:32;7.82;;;7.03;;
12328;SDS011;6230;52.390;10.256;2022-08-30T06:50:58;6.03;;;5.53;;
12328;SDS011;6230;52.390;10.256;2022-08-30T06:53:24;9.20;;;6.93;;
12328;SDS011;6230;52.390;10.256;2022-08-30T06:55:58;13.10;;;7.22;;
12328;SDS011;6230;52.390;10.256;2022-08-30T06:58:25;9.85;;;7.45;;
12328;SDS011;6230;52.390;10.256;2022-08-30T07:00:51;10.57;;;8.48;;
12328;SDS011;6230;52.390;10.256;2022-08-30T07:03:17;9.32;;;8.35;;
12328;SDS011;6230;52.390;10.256;2022-08-30T07:05:43;10.27;;;9.27;;
12328;SDS011;6230;52.390;10.256;2022-08-30T07:08:08;9.20;;;8.30;;
12328;SDS011;6230;52.390;10.256;2022-08-30T07:10:36;10.85;;;9.55;;
12328;SDS011;6230;52.390;10.256;2022-08-30T07:13:02;11.05;;;9.95;;
12328;SDS011;6230;52.390;10.256;2022-08-30T07:15:28;16.23;;;11.48;;
12328;SDS011;6230;52.390;10.256;2022-08-30T07:17:53;36.25;;;15.13;;
12328;SDS011;6230;52.390;10.256;2022-08-30T07:20:37;21.02;;;11.70;;
12328;SDS011;6230;52.390;10.256;2022-08-30T07:23:03;13.45;;;11.52;;
12328;SDS011;6230;52.390;10.256;2022-08-30T07:25:29;10.77;;;9.27;;
12328;SDS011;6230;52.390;10.256;2022-08-30T07:27:54;10.23;;;9.23;;
12328;SDS011;6230;52.390;10.256;2022-08-30T07:30:21;9.65;;;8.75;;
12328;SDS011;6230;52.390;10.256;2022-08-30T07:32:46;10.32;;;9.32;;
12328;SDS011;6230;52.390;10.256;2022-08-30T07:35:13;12.05;;;10.80;;
12328;SDS011;6230;52.390;10.256;2022-08-30T07:37:39;16.50;;;10.27;;
12328;SDS011;6230;52.390;10.256;2022-08-30T07:40:05;12.20;;;9.18;;
12328;SDS011;6230;52.390;10.256;2022-08-30T07:42:31;12.35;;;11.13;;
12328;SDS011;6230;52.390;10.256;2022-08-30T07:44:57;12.25;;;11.02;;
12328;SDS011;6230;52.390;10.256;2022-08-30T07:47:22;13.10;;;10.80;;
12328;SDS011;6230;52.390;10.256;2022-08-30T07:49:48;13.00;;;11.70;;
12328;SDS011;6230;52.390;10.256;2022-08-30T07:52:14;9.82;;;8.82;;
12328;SDS011;6230;52.390;10.256;2022-08-30T07:54:39;10.30;;;9.30;;
12328;SDS011;6230;52.390;10.256;2022-08-30T07:57:05;9.35;;;8.45;;
12328;SDS011;6230;52.390;10.256;2022-08-30T07:59:30;8.85;;;7.97;;
12328;SDS011;6230;52.390;10.256;2022-08-30T08:01:56;8.48;;;7.68;;
12328;SDS011;6230;52.390;10.256;2022-08-30T08:04:21;7.55;;;6.85;;
12328;SDS011;6230;52.390;10.256;2022-08-30T08:06:47;9.98;;;7.18;;
12328;SDS011;6230;52.390;10.256;2022-08-30T08:09:13;9.43;;;8.43;;
12328;SDS011;6230;52.390;10.256;2022-08-30T08:11:39;9.10;;;8.20;;
12328;SDS011;6230;52.390;10.256;2022-08-30T08:14:05;9.13;;;8.23;;
12328;SDS011;6230;52.390;10.256;2022-08-30T08:16:32;9.02;;;7.95;;
12328;SDS011;6230;52.390;10.256;2022-08-30T08:18:58;8.73;;;7.88;;
12328;SDS011;6230;52.390;10.256;2022-08-30T08:21:24;11.05;;;9.00;;
12328;SDS011;6230;52.390;10.256;2022-08-30T08:23:51;10.25;;;9.20;;
12328;SDS011;6230;52.390;10.256;2022-08-30T08:26:17;9.48;;;8.13;;
12328;SDS011;6230;52.390;10.256;2022-08-30T08:28:43;10.35;;;8.88;;
12328;SDS011;6230;52.390;10.256;2022-08-30T08:31:14;8.20;;;7.40;;
12328;SDS011;6230;52.390;10.256;2022-08-30T08:33:45;9.70;;;8.40;;
12328;SDS011;6230;52.390;10.256;2022-08-30T08:36:10;8.95;;;8.05;;
12328;SDS011;6230;52.390;10.256;2022-08-30T08:38:36;8.20;;;7.40;;
12328;SDS011;6230;52.390;10.256;2022-08-30T08:41:08;7.97;;;7.18;;
12328;SDS011;6230;52.390;10.256;2022-08-30T08:43:46;11.10;;;8.27;;
12328;SDS011;6230;52.390;10.256;2022-08-30T08:48:57;10.02;;;8.82;;
12328;SDS011;6230;52.390;10.256;2022-08-30T08:51:29;30.83;;;10.50;;
12328;SDS011;6230;52.390;10.256;2022-08-30T08:57:06;12.15;;;10.88;;
12328;SDS011;6230;52.390;10.256;2022-08-30T08:59:33;11.02;;;9.93;;
12328;SDS011;6230;52.390;10.256;2022-08-30T09:01:59;9.45;;;8.55;;
12328;SDS011;6230;52.390;10.256;2022-08-30T09:04:31;24.65;;;13.27;;
12328;SDS011;6230;52.390;10.256;2022-08-30T09:07:00;22.20;;;11.98;;
12328;SDS011;6230;52.390;10.256;2022-08-30T09:09:32;11.88;;;10.02;;
12328;SDS011;6230;52.390;10.256;2022-08-30T09:12:00;10.43;;;9.43;;
12328;SDS011;6230;52.390;10.256;2022-08-30T09:14:29;10.15;;;9.15;;
12328;SDS011;6230;52.390;10.256;2022-08-30T09:25:03;9.52;;;8.52;;
12328;SDS011;6230;52.390;10.256;2022-08-30T09:27:33;8.00;;;7.30;;
12328;SDS011;6230;52.390;10.256;2022-08-30T09:30:08;6.85;;;5.95;;
12328;SDS011;6230;52.390;10.256;2022-08-30T09:35:24;7.10;;;6.40;;
12328;SDS011;6230;52.390;10.256;2022-08-30T09:40:45;6.65;;;6.05;;
12328;SDS011;6230;52.390;10.256;2022-08-30T09:45:42;6.53;;;5.93;;
12328;SDS011;6230;52.390;10.256;2022-08-30T09:48:27;6.20;;;5.00;;
12328;SDS011;6230;52.390;10.256;2022-08-30T09:50:58;6.63;;;6.03;;
12328;SDS011;6230;52.390;10.256;2022-08-30T09:59:07;4.38;;;4.05;;
12328;SDS011;6230;52.390;10.256;2022-08-30T10:07:18;5.20;;;4.40;;
12328;SDS011;6230;52.390;10.256;2022-08-30T10:10:16;4.07;;;2.90;;
12328;SDS011;6230;52.390;10.256;2022-08-30T10:15:34;2.45;;;2.25;;
12328;SDS011;6230;52.390;10.256;2022-08-30T10:18:10;3.80;;;2.10;;
12328;SDS011;6230;52.390;10.256;2022-08-30T10:20:43;2.30;;;2.10;;
12328;SDS011;6230;52.390;10.256;2022-08-30T10:23:31;2.80;;;2.00;;
12328;SDS011;6230;52.390;10.256;2022-08-30T10:26:17;2.17;;;1.98;;
12328;SDS011;6230;52.390;10.256;2022-08-30T10:34:26;2.17;;;2.00;;
12328;SDS011;6230;52.390;10.256;2022-08-30T10:37:04;1.90;;;1.80;;
12328;SDS011;6230;52.390;10.256;2022-08-30T10:39:51;2.60;;;1.95;;
12328;SDS011;6230;52.390;10.256;2022-08-30T10:42:26;1.58;;;1.45;;
12328;SDS011;6230;52.390;10.256;2022-08-30T10:45:08;1.88;;;1.05;;
12328;SDS011;6230;52.390;10.256;2022-08-30T10:50:24;1.92;;;1.40;;
12328;SDS011;6230;52.390;10.256;2022-08-30T10:53:18;1.40;;;1.30;;
12328;SDS011;6230;52.390;10.256;2022-08-30T10:55:51;2.53;;;1.55;;
12328;SDS011;6230;52.390;10.256;2022-08-30T10:58:32;1.08;;;1.02;;
12328;SDS011;6230;52.390;10.256;2022-08-30T11:11:55;1.20;;;1.10;;
12328;SDS011;6230;52.390;10.256;2022-08-30T11:14:40;1.08;;;0.98;;
12328;SDS011;6230;52.390;10.256;2022-08-30T11:17:18;3.05;;;1.23;;
12328;SDS011;6230;52.390;10.256;2022-08-30T11:19:46;1.42;;;1.20;;
12328;SDS011;6230;52.390;10.256;2022-08-30T11:22:20;1.30;;;1.20;;
12328;SDS011;6230;52.390;10.256;2022-08-30T11:30:44;1.10;;;1.00;;
12328;SDS011;6230;52.390;10.256;2022-08-30T11:41:05;1.60;;;0.80;;
12328;SDS011;6230;52.390;10.256;2022-08-30T11:48:52;0.73;;;0.73;;
12328;SDS011;6230;52.390;10.256;2022-08-30T12:02:41;2.03;;;1.00;;
12328;SDS011;6230;52.390;10.256;2022-08-30T12:10:51;1.48;;;0.90;;
12328;SDS011;6230;52.390;10.256;2022-08-30T12:18:50;4.35;;;0.93;;
12328;SDS011;6230;52.390;10.256;2022-08-30T12:21:27;0.80;;;0.77;;
12328;SDS011;6230;52.390;10.256;2022-08-30T12:24:05;2.05;;;1.13;;
12328;SDS011;6230;52.390;10.256;2022-08-30T12:26:43;1.08;;;0.90;;
12328;SDS011;6230;52.390;10.256;2022-08-30T12:29:21;1.55;;;0.70;;
12328;SDS011;6230;52.390;10.256;2022-08-30T12:39:24;2.38;;;0.90;;
12328;SDS011;6230;52.390;10.256;2022-08-30T12:41:53;2.00;;;1.20;;
12328;SDS011;6230;52.390;10.256;2022-08-30T12:44:21;1.50;;;0.98;;
12328;SDS011;6230;52.390;10.256;2022-08-30T12:47:00;2.92;;;0.90;;
12328;SDS011;6230;52.390;10.256;2022-08-30T12:49:29;1.63;;;1.10;;
12328;SDS011;6230;52.390;10.256;2022-08-30T12:52:14;2.05;;;1.05;;
12328;SDS011;6230;52.390;10.256;2022-08-30T12:54:42;1.02;;;0.90;;
12328;SDS011;6230;52.390;10.256;2022-08-30T12:57:09;2.08;;;0.85;;
12328;SDS011;6230;52.390;10.256;2022-08-30T12:59:47;3.90;;;0.95;;
12328;SDS011;6230;52.390;10.256;2022-08-30T13:02:16;4.15;;;1.00;;
12328;SDS011;6230;52.390;10.256;2022-08-30T13:04:49;1.48;;;1.00;;
12328;SDS011;6230;52.390;10.256;2022-08-30T13:10:00;2.97;;;1.08;;
12328;SDS011;6230;52.390;10.256;2022-08-30T13:12:30;2.22;;;0.93;;
12328;SDS011;6230;52.390;10.256;2022-08-30T13:17:40;1.30;;;0.93;;
12328;SDS011;6230;52.390;10.256;2022-08-30T13:22:36;1.25;;;1.10;;
12328;SDS011;6230;52.390;10.256;2022-08-30T13:25:04;2.15;;;1.20;;
12328;SDS011;6230;52.390;10.256;2022-08-30T13:27:32;3.95;;;2.50;;
12328;SDS011;6230;52.390;10.256;2022-08-30T13:30:05;2.85;;;2.55;;
12328;SDS011;6230;52.390;10.256;2022-08-30T13:32:36;1.35;;;1.10;;
12328;SDS011;6230;52.390;10.256;2022-08-30T13:35:03;1.10;;;1.00;;
12328;SDS011;6230;52.390;10.256;2022-08-30T13:37:29;2.15;;;1.10;;
12328;SDS011;6230;52.390;10.256;2022-08-30T13:39:56;0.98;;;0.90;;
12328;SDS011;6230;52.390;10.256;2022-08-30T13:42:22;2.40;;;1.15;;
12328;SDS011;6230;52.390;10.256;2022-08-30T13:44:48;1.83;;;0.90;;
12328;SDS011;6230;52.390;10.256;2022-08-30T13:47:13;1.00;;;0.90;;
12328;SDS011;6230;52.390;10.256;2022-08-30T13:49:40;1.23;;;1.02;;
12328;SDS011;6230;52.390;10.256;2022-08-30T13:52:08;1.73;;;1.13;;
12328;SDS011;6230;52.390;10.256;2022-08-30T13:54:36;1.55;;;1.10;;
12328;SDS011;6230;52.390;10.256;2022-08-30T13:57:02;2.35;;;0.93;;
12328;SDS011;6230;52.390;10.256;2022-08-30T13:59:29;1.67;;;0.90;;
12328;SDS011;6230;52.390;10.256;2022-08-30T14:01:57;1.30;;;1.13;;
12328;SDS011;6230;52.390;10.256;2022-08-30T14:04:23;1.45;;;1.15;;
12328;SDS011;6230;52.390;10.256;2022-08-30T14:06:48;3.28;;;1.10;;
12328;SDS011;6230;52.390;10.256;2022-08-30T14:09:14;0.73;;;0.73;;
12328;SDS011;6230;52.390;10.256;2022-08-30T14:11:40;2.75;;;1.20;;
12328;SDS011;6230;52.390;10.256;2022-08-30T14:14:06;2.22;;;1.10;;
12328;SDS011;6230;52.390;10.256;2022-08-30T14:16:32;0.90;;;0.90;;
12328;SDS011;6230;52.390;10.256;2022-08-30T14:18:58;2.92;;;1.30;;
12328;SDS011;6230;52.390;10.256;2022-08-30T14:21:25;1.80;;;1.20;;
12328;SDS011;6230;52.390;10.256;2022-08-30T14:23:51;2.45;;;1.00;;
12328;SDS011;6230;52.390;10.256;2022-08-30T14:26:37;4.40;;;1.13;;
12328;SDS011;6230;52.390;10.256;2022-08-30T14:29:13;2.25;;;0.93;;
12328;SDS011;6230;52.390;10.256;2022-08-30T14:31:42;2.65;;;2.00;;
12328;SDS011;6230;52.390;10.256;2022-08-30T14:34:09;2.15;;;1.25;;
12328;SDS011;6230;52.390;10.256;2022-08-30T14:36:36;4.50;;;1.40;;
12328;SDS011;6230;52.390;10.256;2022-08-30T14:39:04;2.50;;;2.10;;
12328;SDS011;6230;52.390;10.256;2022-08-30T14:41:31;3.28;;;1.10;;
12328;SDS011;6230;52.390;10.256;2022-08-30T14:43:57;1.30;;;1.20;;
12328;SDS011;6230;52.390;10.256;2022-08-30T14:46:22;2.28;;;1.10;;
12328;SDS011;6230;52.390;10.256;2022-08-30T14:48:50;1.10;;;1.00;;
12328;SDS011;6230;52.390;10.256;2022-08-30T14:51:17;2.05;;;0.85;;
12328;SDS011;6230;52.390;10.256;2022-08-30T14:53:44;1.35;;;1.13;;
12328;SDS011;6230;52.390;10.256;2022-08-30T14:56:13;1.35;;;1.10;;
12328;SDS011;6230;52.390;10.256;2022-08-30T14:58:40;3.65;;;1.20;;
12328;SDS011;6230;52.390;10.256;2022-08-30T15:01:07;4.18;;;1.10;;
12328;SDS011;6230;52.390;10.256;2022-08-30T15:03:35;1.15;;;1.00;;
12328;SDS011;6230;52.390;10.256;2022-08-30T15:06:01;1.00;;;0.88;;
12328;SDS011;6230;52.390;10.256;2022-08-30T15:08:27;1.77;;;1.08;;
12328;SDS011;6230;52.390;10.256;2022-08-30T15:10:53;1.17;;;0.90;;
12328;SDS011;6230;52.390;10.256;2022-08-30T15:13:19;1.45;;;1.10;;
12328;SDS011;6230;52.390;10.256;2022-08-30T15:15:44;1.30;;;1.10;;
12328;SDS011;6230;52.390;10.256;2022-08-30T15:18:10;1.00;;;0.85;;
12328;SDS011;6230;52.390;10.256;2022-08-30T15:20:36;1.05;;;0.95;;
12328;SDS011;6230;52.390;10.256;2022-08-30T15:23:07;1.17;;;0.80;;
12328;SDS011;6230;52.390;10.256;2022-08-30T15:25:33;0.80;;;0.80;;
12328;SDS011;6230;52.390;10.256;2022-08-30T15:27:59;1.25;;;0.90;;
12328;SDS011;6230;52.390;10.256;2022-08-30T15:30:24;1.10;;;0.90;;
12328;SDS011;6230;52.390;10.256;2022-08-30T15:32:50;0.93;;;0.90;;
12328;SDS011;6230;52.390;10.256;2022-08-30T15:35:15;1.23;;;0.93;;
12328;SDS011;6230;52.390;10.256;2022-08-30T15:37:41;1.15;;;1.00;;
12328;SDS011;6230;52.390;10.256;2022-08-30T15:40:07;1.90;;;0.93;;
12328;SDS011;6230;52.390;10.256;2022-08-30T15:42:33;1.23;;;0.90;;
12328;SDS011;6230;52.390;10.256;2022-08-30T15:44:58;1.85;;;0.85;;
12328;SDS011;6230;52.390;10.256;2022-08-30T15:47:24;1.50;;;1.00;;
12328;SDS011;6230;52.390;10.256;2022-08-30T15:49:53;2.30;;;0.90;;
12328;SDS011;6230;52.390;10.256;2022-08-30T15:52:20;0.80;;;0.80;;
12328;SDS011;6230;52.390;10.256;2022-08-30T15:54:46;1.15;;;0.90;;
12328;SDS011;6230;52.390;10.256;2022-08-30T15:57:11;3.80;;;2.85;;
12328;SDS011;6230;52.390;10.256;2022-08-30T15:59:37;2.67;;;1.80;;
12328;SDS011;6230;52.390;10.256;2022-08-30T16:02:03;1.77;;;1.50;;
12328;SDS011;6230;52.390;10.256;2022-08-30T16:04:28;3.92;;;2.85;;
12328;SDS011;6230;52.390;10.256;2022-08-30T16:06:54;4.10;;;3.70;;
12328;SDS011;6230;52.390;10.256;2022-08-30T16:09:20;3.60;;;1.45;;
12328;SDS011;6230;52.390;10.256;2022-08-30T16:11:45;5.20;;;2.58;;
12328;SDS011;6230;52.390;10.256;2022-08-30T16:14:12;8.30;;;6.38;;
12328;SDS011;6230;52.390;10.256;2022-08-30T16:16:38;4.95;;;2.95;;
12328;SDS011;6230;52.390;10.256;2022-08-30T16:19:05;3.95;;;2.80;;
12328;SDS011;6230;52.390;10.256;2022-08-30T16:21:32;4.25;;;2.90;;
12328;SDS011;6230;52.390;10.256;2022-08-30T16:24:01;8.38;;;6.97;;
12328;SDS011;6230;52.390;10.256;2022-08-30T16:26:29;6.40;;;4.80;;
12328;SDS011;6230;52.390;10.256;2022-08-30T16:28:56;7.57;;;5.03;;
12328;SDS011;6230;52.390;10.256;2022-08-30T16:31:23;2.33;;;1.55;;
12328;SDS011;6230;52.390;10.256;2022-08-30T16:33:50;2.80;;;1.60;;
12328;SDS011;6230;52.390;10.256;2022-08-30T16:36:16;3.80;;;1.00;;
12328;SDS011;6230;52.390;10.256;2022-08-30T16:38:42;3.00;;;1.30;;
12328;SDS011;6230;52.390;10.256;2022-08-30T16:41:09;1.10;;;0.90;;
12328;SDS011;6230;52.390;10.256;2022-08-30T16:43:36;4.32;;;1.95;;